createdAt,value
2018-12-16T00:02:15.378Z,9.90
2018-12-16T00:04:49.902Z,11.40
2018-12-16T00:07:14.645Z,9.17
2018-12-16T00:09:43.177Z,11.33
2018-12-16T00:12:11.763Z,8.93
2018-12-16T00:14:40.283Z,7.23
2018-12-16T00:17:08.842Z,8.80
2018-12-16T00:19:37.346Z,8.50
2018-12-16T00:22:05.935Z,8.77
2018-12-16T00:24:34.507Z,8.40
2018-12-16T00:27:11.053Z,10.80
2018-12-16T00:29:39.778Z,9.33
2018-12-16T00:32:08.347Z,9.90
2018-12-16T00:34:36.862Z,9.63
2018-12-16T00:37:05.788Z,9.30
2018-12-16T00:39:34.368Z,11.80
2018-12-16T00:42:02.974Z,8.83
2018-12-16T00:44:31.584Z,11.93
2018-12-16T00:47:00.154Z,11.73
2018-12-16T00:49:28.734Z,12.43
2018-12-16T00:51:57.325Z,12.70
2018-12-16T00:54:25.900Z,10.77
2018-12-16T00:56:54.473Z,12.23
2018-12-16T00:59:23.092Z,10.63
2018-12-16T01:01:51.651Z,10.13
2018-12-16T01:04:20.218Z,11.03
2018-12-16T01:06:48.833Z,11.00
2018-12-16T01:09:17.470Z,13.17
2018-12-16T01:11:46.088Z,16.97
2018-12-16T01:14:14.684Z,11.03
2018-12-16T01:16:43.277Z,11.57
2018-12-16T01:19:11.880Z,10.90
2018-12-16T01:21:40.525Z,12.13
2018-12-16T01:24:09.084Z,10.30
2018-12-16T01:26:37.730Z,12.50
2018-12-16T01:29:06.294Z,10.37
2018-12-16T01:31:34.843Z,10.37
2018-12-16T01:34:03.552Z,9.83
2018-12-16T01:36:32.149Z,9.43
2018-12-16T01:39:00.788Z,9.53
2018-12-16T01:41:29.863Z,9.53
2018-12-16T01:43:58.984Z,9.13
2018-12-16T01:46:29.769Z,8.70
2018-12-16T01:48:58.321Z,9.73
2018-12-16T01:51:26.969Z,12.13
2018-12-16T01:53:55.529Z,13.53
2018-12-16T01:56:24.080Z,16.07
2018-12-16T01:58:52.656Z,16.90
2018-12-16T02:01:21.208Z,15.13
2018-12-16T02:03:49.771Z,13.40
2018-12-16T02:06:18.463Z,15.83
2018-12-16T02:08:47.028Z,17.50
2018-12-16T02:11:15.528Z,14.67
2018-12-16T02:13:44.109Z,12.60
2018-12-16T02:16:12.652Z,14.93
2018-12-16T02:18:41.234Z,15.07
2018-12-16T02:21:09.794Z,13.40
2018-12-16T02:23:38.355Z,9.10
2018-12-16T02:26:07.041Z,12.53
2018-12-16T02:28:35.597Z,11.63
2018-12-16T02:31:04.223Z,11.57
2018-12-16T02:33:32.789Z,13.53
2018-12-16T02:36:01.311Z,11.50
2018-12-16T02:38:29.905Z,11.97
2018-12-16T02:40:58.454Z,14.17
2018-12-16T02:43:27.074Z,13.37
2018-12-16T02:45:55.773Z,13.43
2018-12-16T02:48:24.346Z,13.00
2018-12-16T02:50:52.939Z,14.20
2018-12-16T02:53:21.508Z,14.43
2018-12-16T02:55:50.074Z,16.27
2018-12-16T02:58:18.734Z,17.17
2018-12-16T03:00:47.327Z,18.40
2018-12-16T03:03:22.324Z,20.03
2018-12-16T03:05:50.918Z,19.63
2018-12-16T03:08:19.482Z,16.60
2018-12-16T03:10:48.118Z,16.43
2018-12-16T03:13:16.654Z,16.90
2018-12-16T03:15:45.334Z,14.23
2018-12-16T03:18:13.905Z,14.93
2018-12-16T03:20:43.055Z,14.50
2018-12-16T03:23:12.534Z,15.93
2018-12-16T03:25:41.395Z,14.23
2018-12-16T03:28:10.000Z,21.63
2018-12-16T03:30:38.563Z,21.60
2018-12-16T03:33:07.185Z,18.27
2018-12-16T03:35:35.778Z,17.50
2018-12-16T03:38:04.470Z,16.70
2018-12-16T03:40:32.995Z,18.47
2018-12-16T03:43:01.977Z,16.50
2018-12-16T03:45:30.588Z,10.53
2018-12-16T03:47:59.253Z,14.67
2018-12-16T03:50:27.803Z,14.53
2018-12-16T03:52:56.367Z,11.70
2018-12-16T03:55:24.941Z,12.47
2018-12-16T03:57:53.516Z,14.13
2018-12-16T04:00:22.279Z,14.43
2018-12-16T04:02:50.858Z,12.70
2018-12-16T04:05:19.486Z,14.80
2018-12-16T04:07:48.146Z,17.10
2018-12-16T04:10:16.729Z,15.77
2018-12-16T04:12:45.333Z,14.83
2018-12-16T04:15:14.033Z,16.67
2018-12-16T04:17:42.603Z,12.40
2018-12-16T04:20:11.218Z,16.17
2018-12-16T04:22:39.818Z,14.23
2018-12-16T04:25:08.342Z,12.67
2018-12-16T04:27:36.895Z,19.57
2018-12-16T04:30:13.622Z,17.23
2018-12-16T04:32:42.179Z,17.40
2018-12-16T04:35:10.743Z,16.83
2018-12-16T04:37:39.391Z,16.87
2018-12-16T04:40:08.206Z,18.50
2018-12-16T04:42:36.764Z,20.50
2018-12-16T04:45:05.914Z,18.23
2018-12-16T04:47:34.465Z,19.90
2018-12-16T04:50:02.998Z,21.43
2018-12-16T04:52:31.550Z,25.33
2018-12-16T04:55:00.086Z,22.57
2018-12-16T04:57:28.663Z,26.80
2018-12-16T04:59:57.196Z,28.30
2018-12-16T05:02:25.709Z,27.77
2018-12-16T05:04:54.328Z,21.17
2018-12-16T05:07:23.231Z,17.20
2018-12-16T05:09:51.720Z,13.70
2018-12-16T05:12:20.614Z,14.10
2018-12-16T05:14:49.080Z,11.20
2018-12-16T05:17:17.633Z,13.27
2018-12-16T05:19:46.156Z,11.80
2018-12-16T05:22:14.714Z,12.67
2018-12-16T05:24:43.272Z,10.27
2018-12-16T05:27:11.837Z,9.60
2018-12-16T05:29:40.515Z,11.40
2018-12-16T05:32:09.127Z,13.43
2018-12-16T05:34:37.675Z,11.60
2018-12-16T05:37:06.226Z,11.00
2018-12-16T05:39:34.752Z,9.73
2018-12-16T05:42:03.365Z,9.23
2018-12-16T05:44:31.856Z,9.90
2018-12-16T05:47:00.377Z,8.07
2018-12-16T05:49:28.887Z,10.43
2018-12-16T05:51:57.671Z,9.37
2018-12-16T05:54:26.275Z,10.30
2018-12-16T05:56:54.879Z,7.63
2018-12-16T05:59:23.457Z,6.77
2018-12-16T06:01:52.084Z,7.83
2018-12-16T06:04:20.690Z,6.93
2018-12-16T06:06:49.245Z,6.83
2018-12-16T06:09:17.808Z,6.80
2018-12-16T06:11:46.399Z,6.60
2018-12-16T06:14:14.948Z,6.07
2018-12-16T06:16:43.421Z,5.20
2018-12-16T06:19:12.469Z,4.80
2018-12-16T06:21:41.046Z,4.60
2018-12-16T06:24:09.553Z,5.30
2018-12-16T06:26:38.116Z,4.43
2018-12-16T06:29:06.785Z,4.83
2018-12-16T06:31:35.377Z,5.07
2018-12-16T06:34:03.919Z,5.00
2018-12-16T06:36:32.522Z,5.10
2018-12-16T06:39:01.053Z,3.57
2018-12-16T06:41:30.028Z,3.90
2018-12-16T06:43:58.583Z,4.70
2018-12-16T06:46:27.107Z,4.00
2018-12-16T06:48:55.725Z,3.40
2018-12-16T06:51:24.260Z,5.33
2018-12-16T06:53:52.815Z,5.10
2018-12-16T06:56:21.593Z,4.07
2018-12-16T06:58:50.145Z,4.20
2018-12-16T07:01:18.778Z,3.80
2018-12-16T07:03:47.364Z,4.57
2018-12-16T07:06:15.939Z,4.93
2018-12-16T07:08:44.472Z,4.43
2018-12-16T07:11:13.039Z,4.37
2018-12-16T07:13:41.601Z,4.27
2018-12-16T07:16:10.293Z,5.53
2018-12-16T07:18:38.933Z,4.33
2018-12-16T07:21:07.631Z,3.97
2018-12-16T07:23:36.285Z,4.47
2018-12-16T07:26:04.826Z,4.77
2018-12-16T07:28:33.422Z,6.57
2018-12-16T07:31:01.999Z,3.30
2018-12-16T07:33:30.628Z,4.67
2018-12-16T07:35:59.189Z,3.57
2018-12-16T07:38:27.792Z,5.37
2018-12-16T07:40:56.804Z,3.55
2018-12-16T07:43:25.461Z,4.73
2018-12-16T07:45:54.953Z,4.60
2018-12-16T07:48:23.810Z,4.17
2018-12-16T07:50:52.601Z,3.52
2018-12-16T07:53:21.163Z,5.03
2018-12-16T07:55:49.718Z,4.00
2018-12-16T07:58:18.326Z,3.98
2018-12-16T08:00:47.026Z,4.15
2018-12-16T08:03:15.582Z,3.55
2018-12-16T08:05:44.222Z,5.20
2018-12-16T08:08:12.924Z,3.92
2018-12-16T08:10:41.505Z,3.50
2018-12-16T08:13:10.117Z,5.25
2018-12-16T08:15:38.656Z,4.10
2018-12-16T08:18:07.263Z,4.87
2018-12-16T08:20:35.940Z,5.60
2018-12-16T08:23:04.507Z,4.30
2018-12-16T08:25:33.181Z,5.87
2018-12-16T08:28:01.740Z,6.95
2018-12-16T08:30:30.367Z,5.78
2018-12-16T08:32:59.031Z,5.42
2018-12-16T08:35:27.652Z,4.37
2018-12-16T08:37:56.190Z,4.53
2018-12-16T08:40:24.864Z,5.70
2018-12-16T08:42:53.386Z,6.22
2018-12-16T08:45:21.925Z,5.62
2018-12-16T08:47:50.482Z,6.45
2018-12-16T08:50:19.033Z,7.78
2018-12-16T08:52:47.601Z,8.10
2018-12-16T08:55:16.197Z,6.40
2018-12-16T08:57:44.776Z,6.47
2018-12-16T09:00:13.620Z,6.20
2018-12-16T09:02:42.229Z,5.83
2018-12-16T09:05:10.811Z,7.67
2018-12-16T09:07:39.361Z,4.95
2018-12-16T09:10:09.205Z,4.53
2018-12-16T09:12:37.825Z,8.25
2018-12-16T09:15:07.294Z,6.37
2018-12-16T09:17:35.805Z,9.65
2018-12-16T09:20:04.872Z,8.33
2018-12-16T09:22:33.484Z,9.05
2018-12-16T09:25:02.143Z,8.00
2018-12-16T09:27:30.883Z,8.23
2018-12-16T09:29:59.463Z,8.93
2018-12-16T09:32:28.075Z,10.80
2018-12-16T09:34:56.664Z,7.85
2018-12-16T09:37:25.197Z,8.90
2018-12-16T09:39:53.737Z,11.68
2018-12-16T09:42:22.389Z,11.20
2018-12-16T09:44:51.085Z,8.13
2018-12-16T09:47:20.087Z,6.95
2018-12-16T09:49:49.507Z,9.00
2018-12-16T09:52:18.197Z,12.35
2018-12-16T09:54:46.825Z,16.00
2018-12-16T09:57:15.395Z,9.83
2018-12-16T09:59:43.998Z,9.48
2018-12-16T10:02:12.552Z,11.97
2018-12-16T10:04:41.157Z,12.07
2018-12-16T10:07:09.766Z,13.05
2018-12-16T10:09:38.409Z,8.65
2018-12-16T10:12:07.033Z,12.63
2018-12-16T10:14:35.541Z,13.00
2018-12-16T10:17:04.257Z,13.08
2018-12-16T10:19:32.900Z,12.98
2018-12-16T10:22:01.470Z,18.23
2018-12-16T10:24:30.156Z,15.98
2018-12-16T10:26:58.767Z,17.48
2018-12-16T10:29:27.475Z,17.62
2018-12-16T10:31:56.042Z,13.80
2018-12-16T10:34:24.635Z,11.10
2018-12-16T10:36:53.191Z,13.35
2018-12-16T10:39:21.699Z,11.55
2018-12-16T10:41:50.255Z,11.40
2018-12-16T10:44:19.711Z,14.00
2018-12-16T10:46:48.664Z,14.50
2018-12-16T10:49:17.201Z,12.80
2018-12-16T10:51:45.768Z,13.32
2018-12-16T10:54:14.416Z,10.18
2018-12-16T10:56:42.939Z,8.93
2018-12-16T10:59:11.538Z,10.80
2018-12-16T11:01:40.095Z,12.37
2018-12-16T11:04:09.142Z,10.75
2018-12-16T11:06:37.822Z,13.18
2018-12-16T11:09:06.542Z,12.28
2018-12-16T11:11:35.120Z,15.20
2018-12-16T11:14:03.694Z,14.87
2018-12-16T11:16:32.289Z,18.75
2018-12-16T11:19:01.665Z,15.38
2018-12-16T11:21:30.205Z,16.07
2018-12-16T11:23:58.802Z,15.23
2018-12-16T11:26:27.354Z,16.93
2018-12-16T11:28:55.950Z,13.35
2018-12-16T11:31:24.525Z,15.10
2018-12-16T11:33:53.197Z,14.10
2018-12-16T11:36:21.729Z,17.02
2018-12-16T11:38:50.311Z,13.72
2018-12-16T11:41:18.899Z,15.15
2018-12-16T11:43:47.448Z,18.40
2018-12-16T11:46:16.019Z,17.05
2018-12-16T11:48:44.620Z,13.13
2018-12-16T11:51:13.167Z,12.55
2018-12-16T11:53:41.735Z,15.70
2018-12-16T11:56:10.290Z,12.37
2018-12-16T11:58:38.894Z,12.25
2018-12-16T12:01:07.458Z,11.25
2018-12-16T12:03:36.029Z,11.68
2018-12-16T12:06:04.652Z,10.15
2018-12-16T12:08:33.185Z,10.25
2018-12-16T12:11:01.783Z,11.65
2018-12-16T12:13:30.328Z,11.12
2018-12-16T12:15:58.927Z,11.97
2018-12-16T12:18:27.533Z,14.15
2018-12-16T12:20:56.103Z,12.73
2018-12-16T12:23:24.629Z,10.72
2018-12-16T12:25:53.176Z,8.85
2018-12-16T12:28:22.017Z,10.58
2018-12-16T12:30:50.796Z,11.35
2018-12-16T12:33:19.528Z,8.30
2018-12-16T12:35:48.149Z,9.88
2018-12-16T12:38:16.701Z,11.60
2018-12-16T12:40:45.246Z,10.78
2018-12-16T12:43:13.798Z,10.45
2018-12-16T12:45:42.293Z,11.48
2018-12-16T12:48:10.867Z,12.23
2018-12-16T12:50:39.431Z,12.68
2018-12-16T12:53:08.011Z,12.53
2018-12-16T12:55:36.576Z,12.98
2018-12-16T12:58:05.320Z,13.65
2018-12-16T13:00:33.855Z,11.10
2018-12-16T13:03:02.521Z,9.63
2018-12-16T13:05:36.872Z,9.83
2018-12-16T13:08:01.665Z,8.85
2018-12-16T13:10:30.217Z,9.10
2018-12-16T13:12:58.792Z,9.78
2018-12-16T13:15:27.385Z,10.80
2018-12-16T13:17:56.115Z,9.30
2018-12-16T13:20:24.694Z,10.75
2018-12-16T13:22:53.336Z,10.28
2018-12-16T13:25:35.611Z,11.35
2018-12-16T13:28:03.750Z,11.25
2018-12-16T13:30:32.329Z,11.75
2018-12-16T13:33:00.858Z,14.35
2018-12-16T13:35:29.609Z,8.38
2018-12-16T13:37:58.228Z,15.45
2018-12-16T13:40:26.787Z,12.25
2018-12-16T13:42:55.405Z,11.45
2018-12-16T13:45:24.122Z,11.05
2018-12-16T13:47:52.890Z,11.55
2018-12-16T13:50:21.487Z,9.85
2018-12-16T13:52:50.260Z,12.80
2018-12-16T13:55:18.802Z,11.18
2018-12-16T13:57:47.806Z,12.78
2018-12-16T14:00:16.707Z,11.63
2018-12-16T14:02:45.302Z,13.60
2018-12-16T14:05:14.097Z,12.05
2018-12-16T14:07:43.827Z,8.20
2018-12-16T14:10:12.382Z,12.23
2018-12-16T14:12:40.965Z,14.05
2018-12-16T14:15:09.830Z,14.05
2018-12-16T14:17:39.334Z,10.80
2018-12-16T14:20:09.678Z,15.28
2018-12-16T14:22:38.343Z,9.90
2018-12-16T14:25:07.409Z,14.55
2018-12-16T14:27:35.956Z,10.53
2018-12-16T14:30:13.329Z,12.20
2018-12-16T14:32:41.932Z,12.35
2018-12-16T14:35:11.338Z,11.60
2018-12-16T14:37:39.880Z,10.78
2018-12-16T14:40:10.400Z,10.78
2018-12-16T14:42:39.109Z,12.37
2018-12-16T14:45:09.452Z,15.43
2018-12-16T14:47:38.302Z,15.45
2018-12-16T14:50:09.602Z,14.73
2018-12-16T14:52:38.247Z,10.50
2018-12-16T14:55:08.492Z,14.13
2018-12-16T14:57:37.120Z,13.30
2018-12-16T15:00:14.212Z,15.10
2018-12-16T15:02:42.814Z,16.23
2018-12-16T15:05:11.427Z,14.55
2018-12-16T15:07:39.988Z,14.80
2018-12-16T15:10:10.540Z,12.23
2018-12-16T15:12:39.199Z,12.30
2018-12-16T15:15:08.745Z,15.15
2018-12-16T15:17:42.676Z,16.05
2018-12-16T15:20:09.055Z,15.70
2018-12-16T15:22:38.701Z,18.02
2018-12-16T15:25:07.450Z,13.28
2018-12-16T15:27:36.001Z,15.35
2018-12-16T15:30:13.726Z,14.58
2018-12-16T15:32:42.324Z,10.65
2018-12-16T15:35:11.852Z,16.20
2018-12-16T15:37:40.456Z,15.30
2018-12-16T15:40:09.231Z,22.32
2018-12-16T15:42:37.754Z,14.68
2018-12-16T15:45:08.428Z,15.18
2018-12-16T15:47:37.080Z,16.00
2018-12-16T15:50:06.610Z,15.88
2018-12-16T15:52:35.341Z,15.85
2018-12-16T15:55:04.284Z,14.68
2018-12-16T15:57:32.857Z,16.93
2018-12-16T16:00:01.398Z,16.17
2018-12-16T16:02:29.938Z,18.15
2018-12-16T16:04:58.454Z,16.75
2018-12-16T16:07:27.015Z,17.92
2018-12-16T16:09:55.573Z,20.85
2018-12-16T16:12:24.141Z,20.30
2018-12-16T16:14:52.728Z,20.60
2018-12-16T16:17:21.297Z,19.02
2018-12-16T16:19:49.915Z,20.68
2018-12-16T16:22:18.467Z,21.15
2018-12-16T16:24:47.017Z,20.60
2018-12-16T16:27:15.585Z,19.25
2018-12-16T16:29:44.188Z,18.35
2018-12-16T16:32:12.738Z,21.55
2018-12-16T16:34:41.284Z,16.95
2018-12-16T16:37:09.854Z,20.30
2018-12-16T16:39:38.443Z,18.15
2018-12-16T16:42:08.592Z,19.00
2018-12-16T16:44:37.144Z,20.45
2018-12-16T16:47:05.730Z,21.62
2018-12-16T16:49:34.284Z,24.35
2018-12-16T16:52:02.887Z,22.05
2018-12-16T16:54:31.488Z,21.17
2018-12-16T16:57:00.025Z,25.12
2018-12-16T16:59:28.603Z,25.00
2018-12-16T17:01:57.196Z,23.75
2018-12-16T17:04:26.384Z,23.67
2018-12-16T17:06:54.967Z,23.70
2018-12-16T17:09:23.501Z,19.48
2018-12-16T17:11:52.090Z,20.40
2018-12-16T17:14:20.699Z,19.32
2018-12-16T17:16:49.288Z,18.92
2018-12-16T17:19:18.136Z,21.93
2018-12-16T17:21:47.139Z,19.65
2018-12-16T17:24:15.703Z,19.07
2018-12-16T17:26:44.265Z,17.87
2018-12-16T17:29:12.841Z,17.85
2018-12-16T17:31:41.393Z,17.62
2018-12-16T17:34:09.956Z,16.80
2018-12-16T17:36:38.492Z,18.82
2018-12-16T17:39:09.001Z,11.93
2018-12-16T17:41:37.678Z,18.27
2018-12-16T17:44:06.283Z,15.95
2018-12-16T17:46:34.860Z,16.02
2018-12-16T17:49:03.438Z,14.98
2018-12-16T17:51:32.020Z,17.07
2018-12-16T17:54:00.595Z,15.08
2018-12-16T17:56:29.216Z,12.30
2018-12-16T17:58:57.814Z,13.53
2018-12-16T18:01:26.449Z,16.32
2018-12-16T18:03:55.013Z,17.07
2018-12-16T18:06:24.309Z,13.58
2018-12-16T18:08:53.214Z,15.28
2018-12-16T18:11:22.494Z,15.85
2018-12-16T18:13:51.019Z,13.93
2018-12-16T18:16:19.586Z,12.95
2018-12-16T18:18:48.140Z,14.53
2018-12-16T18:21:16.675Z,15.75
2018-12-16T18:23:45.244Z,10.38
2018-12-16T18:26:13.751Z,13.30
2018-12-16T18:28:42.670Z,12.80
2018-12-16T18:31:11.225Z,17.02
2018-12-16T18:33:39.771Z,16.37
2018-12-16T18:36:08.364Z,18.30
2018-12-16T18:38:36.941Z,12.68
2018-12-16T18:41:05.533Z,15.25
2018-12-16T18:43:34.094Z,11.95
2018-12-16T18:46:02.691Z,11.73
2018-12-16T18:48:31.241Z,13.15
2018-12-16T18:50:59.761Z,10.85
2018-12-16T18:53:28.711Z,12.10
2018-12-16T18:55:57.320Z,13.45
2018-12-16T18:58:25.864Z,13.93
2018-12-16T19:00:54.396Z,11.50
2018-12-16T19:03:22.980Z,13.90
2018-12-16T19:05:51.522Z,14.98
2018-12-16T19:08:20.111Z,19.27
2018-12-16T19:10:48.702Z,14.15
2018-12-16T19:13:17.247Z,14.73
2018-12-16T19:15:45.786Z,11.95
2018-12-16T19:18:14.362Z,12.43
2018-12-16T19:20:44.190Z,15.13
2018-12-16T19:23:12.747Z,13.30
2018-12-16T19:25:42.312Z,10.55
2018-12-16T19:28:11.062Z,12.80
2018-12-16T19:30:39.592Z,14.35
2018-12-16T19:33:08.166Z,15.18
2018-12-16T19:35:36.702Z,15.78
2018-12-16T19:38:05.238Z,12.28
2018-12-16T19:40:33.798Z,17.35
2018-12-16T19:43:02.376Z,13.65
2018-12-16T19:45:30.926Z,13.35
2018-12-16T19:47:59.487Z,10.43
2018-12-16T19:50:28.024Z,13.13
2018-12-16T19:52:56.550Z,14.00
2018-12-16T19:55:25.595Z,15.48
2018-12-16T19:57:54.122Z,14.83
2018-12-16T20:00:22.679Z,13.78
2018-12-16T20:02:51.206Z,13.98
2018-12-16T20:05:20.818Z,12.63
2018-12-16T20:07:50.176Z,13.70
2018-12-16T20:10:18.742Z,12.05
2018-12-16T20:12:47.344Z,14.68
2018-12-16T20:15:15.871Z,14.70
2018-12-16T20:17:44.445Z,11.95
2018-12-16T20:20:13.117Z,13.88
2018-12-16T20:22:41.681Z,12.47
2018-12-16T20:25:10.254Z,15.10
2018-12-16T20:27:38.790Z,12.43
2018-12-16T20:30:11.221Z,14.55
2018-12-16T20:32:39.749Z,15.28
2018-12-16T20:35:08.366Z,14.13
2018-12-16T20:37:37.902Z,13.65
2018-12-16T20:40:07.809Z,15.65
2018-12-16T20:42:36.339Z,12.93
2018-12-16T20:45:06.101Z,11.22
2018-12-16T20:47:34.630Z,13.43
2018-12-16T20:50:03.313Z,13.80
2018-12-16T20:52:31.833Z,14.20
2018-12-16T20:55:00.386Z,13.50
2018-12-16T20:57:28.917Z,13.58
2018-12-16T20:59:57.508Z,14.35
2018-12-16T21:02:26.086Z,14.15
2018-12-16T21:04:54.648Z,14.05
2018-12-16T21:07:23.181Z,14.83
2018-12-16T21:09:51.729Z,12.53
2018-12-16T21:12:25.626Z,14.23
2018-12-16T21:14:59.398Z,16.80
2018-12-16T21:17:33.305Z,13.18
2018-12-16T21:20:01.872Z,16.12
2018-12-16T21:22:30.422Z,10.93
2018-12-16T21:24:59.016Z,13.05
2018-12-16T21:27:27.778Z,15.68
2018-12-16T21:29:56.305Z,12.50
2018-12-16T21:32:24.964Z,14.45
2018-12-16T21:34:53.617Z,9.98
2018-12-16T21:37:22.174Z,12.00
2018-12-16T21:39:50.875Z,14.33
2018-12-16T21:42:19.484Z,12.68
2018-12-16T21:44:48.065Z,13.53
2018-12-16T21:47:16.624Z,12.88
2018-12-16T21:49:45.235Z,12.43
2018-12-16T21:52:13.784Z,10.68
2018-12-16T21:54:42.343Z,9.83
2018-12-16T21:57:10.894Z,15.45
2018-12-16T21:59:39.751Z,10.53
2018-12-16T22:02:08.265Z,12.68
2018-12-16T22:04:36.827Z,10.80
2018-12-16T22:07:05.366Z,11.88
2018-12-16T22:09:33.929Z,12.65
2018-12-16T22:12:02.464Z,11.15
2018-12-16T22:14:31.080Z,11.03
2018-12-16T22:16:59.661Z,10.93
2018-12-16T22:19:28.204Z,11.33
2018-12-16T22:21:56.691Z,11.63
2018-12-16T22:24:25.289Z,11.20
2018-12-16T22:26:53.833Z,11.20
2018-12-16T22:29:22.355Z,11.33
2018-12-16T22:31:50.944Z,12.82
2018-12-16T22:34:20.414Z,12.28
2018-12-16T22:36:49.047Z,9.55
2018-12-16T22:39:17.635Z,11.35
2018-12-16T22:41:46.174Z,11.10
2018-12-16T22:44:14.703Z,11.08
2018-12-16T22:46:43.775Z,11.88
2018-12-16T22:49:12.351Z,10.95
2018-12-16T22:51:40.896Z,11.63
2018-12-16T22:54:09.443Z,12.53
2018-12-16T22:56:38.028Z,11.10
2018-12-16T22:59:06.557Z,12.63
2018-12-16T23:01:35.131Z,11.78
2018-12-16T23:04:03.675Z,11.97
2018-12-16T23:06:32.221Z,11.18
2018-12-16T23:09:00.933Z,11.05
2018-12-16T23:11:29.647Z,9.50
2018-12-16T23:13:58.465Z,13.38
2018-12-16T23:16:28.001Z,11.28
2018-12-16T23:18:56.538Z,11.15
2018-12-16T23:21:25.139Z,11.73
2018-12-16T23:23:53.751Z,8.05
2018-12-16T23:26:22.315Z,9.93
2018-12-16T23:28:51.098Z,12.70
2018-12-16T23:31:19.665Z,8.65
2018-12-16T23:33:48.175Z,13.25
2018-12-16T23:36:16.888Z,9.85
2018-12-16T23:38:45.459Z,13.32
2018-12-16T23:41:14.048Z,11.20
2018-12-16T23:43:42.580Z,12.33
2018-12-16T23:46:11.094Z,12.23
2018-12-16T23:48:39.675Z,11.48
2018-12-16T23:51:08.358Z,11.83
2018-12-16T23:53:36.923Z,9.80
2018-12-16T23:56:05.443Z,10.32
2018-12-16T23:58:34.010Z,11.45
